Time;durP1;ratioP1;P1;durP2;ratioP2;P2;SDS_P1;SDS_P2;PMS_P1;PMS_P2;Temp;Humidity;BMP_temperature;BMP_pressure;BME280_temperature;BME280_humidity;BME280_pressure;Samples;Min_cycle;Max_cycle;Signal;HPM_P1;HPM_P2
2022/10/13 00:00:43;;;;;;;30.10;18.80;;;11.80;77.10;;;;;;5056687;28;20025;-14
2022/10/13 00:03:10;;;;;;;28.65;17.80;;;11.80;77.20;;;;;;5055483;28;20498;-15
2022/10/13 00:05:41;;;;;;;26.50;18.02;;;11.70;77.40;;;;;;5054625;28;20032;-14
2022/10/13 00:08:07;;;;;;;35.40;22.55;;;11.70;77.50;;;;;;5054663;28;20055;-14
2022/10/13 00:10:36;;;;;;;31.50;17.58;;;11.70;77.70;;;;;;5055268;28;20028;-14
2022/10/13 00:13:03;;;;;;;27.63;17.50;;;11.60;78.20;;;;;;5055263;28;20477;-13
2022/10/13 00:15:29;;;;;;;21.45;14.23;;;11.60;78.30;;;;;;5055297;28;20122;-14
2022/10/13 00:17:55;;;;;;;26.65;17.52;;;11.60;78.30;;;;;;5055163;28;20044;-14
2022/10/13 00:20:21;;;;;;;23.00;15.93;;;11.60;78.20;;;;;;5055280;28;20068;-14
2022/10/13 00:22:47;;;;;;;26.38;17.48;;;11.60;78.70;;;;;;5054942;28;20033;-15
2022/10/13 00:25:13;;;;;;;27.42;16.13;;;11.60;78.70;;;;;;5055273;28;20036;-14
2022/10/13 00:27:39;;;;;;;25.88;15.98;;;11.60;78.50;;;;;;5055485;28;20032;-14
2022/10/13 00:30:06;;;;;;;20.83;13.13;;;11.50;78.40;;;;;;5054942;28;20021;-14
2022/10/13 00:32:32;;;;;;;23.55;14.75;;;11.50;78.50;;;;;;5055292;28;20091;-14
2022/10/13 00:34:58;;;;;;;24.75;15.43;;;11.50;78.60;;;;;;5054482;28;20468;-14
2022/10/13 00:37:24;;;;;;;34.78;20.60;;;11.50;78.60;;;;;;5054840;28;20068;-13
2022/10/13 00:39:50;;;;;;;26.90;18.05;;;11.50;78.80;;;;;;5055334;28;20025;-14
2022/10/13 00:42:16;;;;;;;23.00;15.07;;;11.50;78.90;;;;;;5054930;28;20025;-13
2022/10/13 00:45:04;;;;;;;20.92;13.48;;;11.50;79.20;;;;;;5054730;28;20032;-14
2022/10/13 00:47:45;;;;;;;23.42;13.45;;;11.50;78.60;;;;;;5054748;28;20029;-14
2022/10/13 00:50:36;;;;;;;18.50;13.27;;;11.40;78.50;;;;;;5055175;28;20024;-14
2022/10/13 00:53:04;;;;;;;19.08;12.82;;;11.40;78.70;;;;;;5054404;28;20032;-14
2022/10/13 00:55:33;;;;;;;15.15;11.02;;;11.40;78.50;;;;;;5054395;28;20127;-13
2022/10/13 00:58:02;;;;;;;24.88;15.13;;;11.40;78.30;;;;;;5054515;28;20028;-13
2022/10/13 01:00:29;;;;;;;21.35;15.10;;;11.40;78.70;;;;;;5054997;28;20075;-13
2022/10/13 01:02:55;;;;;;;17.85;11.93;;;11.30;78.90;;;;;;5054170;28;20025;-13
2022/10/13 01:05:21;;;;;;;19.92;12.82;;;11.30;78.40;;;;;;5054823;28;20488;-13
2022/10/13 01:07:52;;;;;;;20.45;13.93;;;11.30;78.70;;;;;;5054596;28;20021;-13
2022/10/13 01:10:26;;;;;;;21.40;14.60;;;11.30;78.80;;;;;;5054148;28;20040;-13
2022/10/13 01:12:59;;;;;;;28.35;16.05;;;11.20;79.00;;;;;;5054030;28;20056;-14
2022/10/13 01:15:32;;;;;;;31.77;20.13;;;11.20;79.00;;;;;;5054116;28;20480;-12
2022/10/13 01:18:16;;;;;;;;;;;11.20;78.90;;;;;;5054858;28;20371;-13
2022/10/13 01:20:54;;;;;;;19.00;12.77;;;11.20;79.50;;;;;;5053877;28;20341;-13
2022/10/13 01:23:56;;;;;;;22.25;14.82;;;11.20;79.10;;;;;;5054387;28;20043;-14
2022/10/13 01:26:34;;;;;;;26.77;17.10;;;11.20;79.00;;;;;;5053990;28;20033;-13
2022/10/13 01:29:29;;;;;;;21.83;14.70;;;11.10;79.10;;;;;;5053749;28;20033;-13
2022/10/13 01:32:39;;;;;;;23.15;13.32;;;11.10;79.00;;;;;;5054175;28;20476;-14
2022/10/13 01:35:37;;;;;;;26.77;15.90;;;11.10;79.20;;;;;;4992998;28;20041;-14
2022/10/13 01:38:22;;;;;;;24.85;14.73;;;11.10;79.20;;;;;;5054086;28;20024;-13
2022/10/13 01:41:09;;;;;;;25.08;15.73;;;11.10;79.30;;;;;;5053412;28;20033;-13
2022/10/13 01:43:53;;;;;;;18.48;12.43;;;11.10;79.40;;;;;;5054265;28;20048;-13
2022/10/13 01:46:26;;;;;;;22.88;12.57;;;11.10;79.20;;;;;;5054074;28;20041;-13
2022/10/13 01:48:57;;;;;;;30.75;18.50;;;11.10;79.20;;;;;;5053067;28;20086;-14
2022/10/13 01:51:26;;;;;;;25.05;16.08;;;11.10;79.20;;;;;;5053934;28;20028;-14
2022/10/13 01:53:52;;;;;;;27.65;15.15;;;11.10;79.30;;;;;;5053684;28;20025;-13
2022/10/13 01:56:18;;;;;;;20.30;13.30;;;11.10;79.40;;;;;;5053766;28;20358;-14
2022/10/13 01:58:45;;;;;;;17.73;12.05;;;11.20;79.50;;;;;;5053677;28;20107;-14
2022/10/13 02:01:30;;;;;;;20.92;14.52;;;11.20;79.40;;;;;;5053095;28;20033;-13
2022/10/13 02:03:56;;;;;;;30.95;19.30;;;11.20;79.50;;;;;;5053382;28;20112;-14
2022/10/13 02:06:31;;;;;;;22.27;14.48;;;11.20;79.60;;;;;;5053596;28;20108;-13
2022/10/13 02:09:18;;;;;;;22.00;14.30;;;11.20;79.40;;;;;;5053218;28;20476;-13
2022/10/13 02:11:55;;;;;;;28.42;18.60;;;11.20;79.30;;;;;;5053152;28;20131;-13
2022/10/13 02:14:28;;;;;;;32.78;18.88;;;11.20;79.40;;;;;;5053260;28;20028;-13
2022/10/13 02:16:57;;;;;;;27.25;16.80;;;11.20;79.60;;;;;;5053280;28;20025;-13
2022/10/13 02:19:24;;;;;;;28.70;17.75;;;11.10;79.90;;;;;;5053497;28;20060;-12
2022/10/13 02:21:52;;;;;;;29.45;17.05;;;11.10;79.90;;;;;;5052987;28;20083;-12
2022/10/13 02:24:18;;;;;;;27.52;16.52;;;11.10;79.60;;;;;;5053206;28;20112;-13
2022/10/13 02:26:44;;;;;;;26.20;16.23;;;11.10;79.90;;;;;;5053003;28;20064;-13
2022/10/13 02:29:15;;;;;;;27.20;15.90;;;11.10;79.70;;;;;;5052708;28;20083;-13
2022/10/13 02:31:43;;;;;;;21.10;12.18;;;11.10;79.80;;;;;;5052966;28;20492;-13
2022/10/13 02:34:09;;;;;;;29.42;18.55;;;11.10;79.90;;;;;;5051760;28;20057;-14
2022/10/13 02:36:37;;;;;;;21.92;13.40;;;11.10;79.80;;;;;;5053233;28;20029;-14
2022/10/13 02:39:04;;;;;;;26.75;17.85;;;11.10;80.10;;;;;;5053093;28;20071;-13
2022/10/13 02:41:30;;;;;;;17.88;12.35;;;11.10;80.00;;;;;;5053416;28;20083;-13
2022/10/13 02:43:56;;;;;;;22.95;12.80;;;11.00;80.00;;;;;;5051544;28;20025;-12
2022/10/13 02:46:22;;;;;;;16.17;11.30;;;11.00;79.80;;;;;;5052813;28;20029;-13
2022/10/13 02:48:47;;;;;;;17.25;11.05;;;11.00;79.80;;;;;;5052886;28;20029;-13
2022/10/13 02:51:13;;;;;;;18.85;11.88;;;11.00;79.80;;;;;;5053088;28;20083;-12
2022/10/13 02:53:39;;;;;;;22.88;13.23;;;10.90;79.70;;;;;;5051951;28;20037;-13
2022/10/13 02:56:06;;;;;;;23.45;13.15;;;10.90;79.80;;;;;;5051503;28;20036;-14
2022/10/13 02:58:32;;;;;;;22.00;14.10;;;10.90;80.00;;;;;;5054271;28;20029;-14
2022/10/13 03:01:06;;;;;;;28.67;15.82;;;10.80;79.90;;;;;;5056534;28;20040;-14
2022/10/13 03:03:33;;;;;;;31.30;18.70;;;10.80;79.80;;;;;;5056962;28;20489;-12
2022/10/13 03:05:59;;;;;;;21.40;13.82;;;10.70;80.10;;;;;;5056911;28;20025;-13
2022/10/13 03:08:26;;;;;;;24.85;14.32;;;10.70;80.20;;;;;;5056552;28;20033;-13
2022/10/13 03:10:52;;;;;;;26.33;17.25;;;10.70;80.60;;;;;;5056380;28;20025;-13
2022/10/13 03:13:18;;;;;;;21.77;13.77;;;10.70;80.70;;;;;;5056805;28;20029;-13
2022/10/13 03:15:45;;;;;;;25.63;14.15;;;10.70;80.60;;;;;;5056453;28;20029;-12
2022/10/13 03:18:11;;;;;;;18.92;12.65;;;10.60;80.60;;;;;;5056418;28;20060;-13
2022/10/13 03:20:37;;;;;;;19.10;12.43;;;10.50;80.40;;;;;;5056131;28;20077;-13
2022/10/13 03:23:02;;;;;;;12.50;9.45;;;10.60;80.70;;;;;;5056127;28;20032;-13
2022/10/13 03:25:28;;;;;;;20.45;13.00;;;10.50;80.50;;;;;;5056969;28;20032;-14
2022/10/13 03:27:55;;;;;;;23.35;15.10;;;10.50;80.40;;;;;;5056167;28;20034;-14
2022/10/13 03:30:21;;;;;;;23.35;14.13;;;10.50;80.40;;;;;;5056238;28;20096;-14
2022/10/13 03:32:47;;;;;;;26.08;14.88;;;10.50;80.40;;;;;;5056278;28;20037;-14
2022/10/13 03:35:13;;;;;;;23.13;13.93;;;10.50;80.70;;;;;;5056475;28;20052;-12
2022/10/13 03:37:39;;;;;;;26.10;16.58;;;10.40;80.70;;;;;;5056475;28;20032;-12
2022/10/13 03:40:06;;;;;;;27.05;16.60;;;10.40;80.90;;;;;;5056095;28;20103;-12
2022/10/13 03:42:34;;;;;;;23.02;13.48;;;10.40;81.10;;;;;;5056084;28;20040;-13
2022/10/13 03:45:00;;;;;;;19.95;13.02;;;10.40;80.80;;;;;;5055878;28;20100;-12
2022/10/13 03:47:26;;;;;;;17.80;11.25;;;10.50;80.80;;;;;;5055722;28;20135;-12
2022/10/13 03:49:54;;;;;;;18.77;12.10;;;10.50;80.80;;;;;;5056546;28;20021;-12
2022/10/13 03:52:21;;;;;;;17.05;10.98;;;10.50;80.70;;;;;;5055747;28;20076;-12
2022/10/13 03:54:47;;;;;;;20.58;12.95;;;10.50;80.70;;;;;;5055729;28;20025;-11
2022/10/13 03:57:13;;;;;;;20.70;11.95;;;10.60;80.90;;;;;;5055627;28;20488;-13
2022/10/13 03:59:40;;;;;;;26.17;15.27;;;10.60;81.00;;;;;;5055995;28;20036;-13
2022/10/13 04:02:07;;;;;;;24.65;11.90;;;10.60;81.10;;;;;;5055816;28;20033;-11
2022/10/13 04:04:34;;;;;;;25.65;14.55;;;10.60;80.80;;;;;;5055889;28;20067;-12
2022/10/13 04:07:00;;;;;;;21.63;11.20;;;10.60;81.00;;;;;;5055888;28;20025;-13
2022/10/13 04:09:26;;;;;;;20.95;13.93;;;10.70;80.60;;;;;;5055274;28;20025;-13
2022/10/13 04:11:52;;;;;;;17.63;11.10;;;10.70;80.80;;;;;;5055549;28;20035;-13
2022/10/13 04:14:19;;;;;;;17.85;10.95;;;10.70;80.50;;;;;;5055727;28;20025;-13
2022/10/13 04:16:46;;;;;;;19.95;12.25;;;10.70;80.50;;;;;;5055619;28;20040;-14
2022/10/13 04:19:13;;;;;;;14.80;9.05;;;10.70;80.90;;;;;;5055131;28;20473;-14
2022/10/13 04:21:41;;;;;;;16.70;10.05;;;10.70;80.50;;;;;;5054893;28;20051;-14
2022/10/13 04:24:09;;;;;;;17.67;10.27;;;10.80;80.30;;;;;;5055044;28;20392;-14
2022/10/13 04:26:35;;;;;;;15.75;10.18;;;10.80;80.50;;;;;;5055696;28;20033;-14
2022/10/13 04:29:04;;;;;;;22.35;13.43;;;10.70;80.30;;;;;;5054865;28;20504;-14
2022/10/13 04:31:30;;;;;;;20.58;12.25;;;10.70;80.40;;;;;;5055048;28;20017;-15
2022/10/13 04:33:57;;;;;;;24.20;14.10;;;10.70;80.60;;;;;;5054989;28;20029;-13
2022/10/13 04:36:24;;;;;;;16.65;10.10;;;10.60;80.70;;;;;;5054895;28;20032;-14
2022/10/13 04:38:51;;;;;;;13.93;8.95;;;10.60;80.30;;;;;;5054648;28;20473;-14
2022/10/13 04:41:18;;;;;;;15.50;9.68;;;10.60;80.30;;;;;;5055035;28;20070;-13
2022/10/13 04:43:48;;;;;;;23.77;12.43;;;10.50;80.50;;;;;;5054783;28;20039;-14
2022/10/13 04:46:18;;;;;;;19.15;11.45;;;10.50;80.50;;;;;;5054797;28;20036;-15
2022/10/13 04:48:45;;;;;;;20.67;11.10;;;10.40;80.70;;;;;;5054996;28;20108;-13
2022/10/13 04:51:13;;;;;;;18.95;10.30;;;10.40;80.70;;;;;;5054781;28;20044;-13
2022/10/13 04:53:40;;;;;;;23.85;14.15;;;10.40;80.60;;;;;;5054631;28;20084;-14
2022/10/13 04:56:09;;;;;;;21.63;12.48;;;10.40;80.60;;;;;;5053264;28;20021;-14
2022/10/13 04:58:36;;;;;;;22.50;14.65;;;10.40;80.70;;;;;;5054823;28;20025;-13
2022/10/13 05:01:04;;;;;;;23.30;14.45;;;10.40;80.70;;;;;;5054311;28;20597;-13
2022/10/13 05:03:30;;;;;;;29.25;15.05;;;10.40;80.70;;;;;;5053723;28;20036;-14
2022/10/13 05:05:56;;;;;;;19.13;12.25;;;10.30;80.90;;;;;;5054333;28;20029;-13
2022/10/13 05:08:23;;;;;;;17.73;10.07;;;10.30;80.90;;;;;;5054878;28;20036;-15
2022/10/13 05:10:56;;;;;;;15.88;10.00;;;10.30;80.90;;;;;;5054299;28;20028;-14
2022/10/13 05:13:23;;;;;;;14.73;9.75;;;10.30;80.90;;;;;;5054621;28;20029;-14
2022/10/13 05:15:49;;;;;;;12.52;8.38;;;10.30;80.90;;;;;;5054163;28;20121;-14
2022/10/13 05:18:16;;;;;;;15.30;9.68;;;10.30;80.80;;;;;;5052892;28;20082;-14
2022/10/13 05:20:42;;;;;;;14.35;9.10;;;10.20;80.70;;;;;;5054151;28;20053;-14
2022/10/13 05:23:08;;;;;;;13.07;7.97;;;10.30;80.60;;;;;;5053193;28;20052;-14
2022/10/13 05:25:36;;;;;;;17.75;10.00;;;10.20;80.60;;;;;;5053936;28;20029;-15
2022/10/13 05:28:06;;;;;;;14.73;8.70;;;10.20;80.50;;;;;;5054559;28;20031;-15
2022/10/13 05:30:33;;;;;;;15.05;9.27;;;10.20;80.40;;;;;;5054195;28;20024;-15
2022/10/13 05:32:59;;;;;;;18.73;11.88;;;10.20;80.40;;;;;;5052391;28;20024;-15
2022/10/13 05:35:26;;;;;;;19.58;11.45;;;10.20;80.60;;;;;;5053805;28;20028;-14
2022/10/13 05:37:51;;;;;;;20.48;12.10;;;10.10;80.50;;;;;;5054113;28;20030;-14
2022/10/13 05:40:20;;;;;;;19.83;11.68;;;10.10;80.70;;;;;;5053965;28;20025;-14
2022/10/13 05:42:50;;;;;;;20.85;11.13;;;10.10;80.70;;;;;;5053585;28;20396;-16
2022/10/13 05:57:41;;;;;;;24.98;16.05;;;10.10;80.80;;;;;;5069572;28;20487;-17
2022/10/13 06:00:13;;;;;;;23.17;14.10;;;10.30;82.60;;;;;;5070333;28;20083;-14
2022/10/13 06:02:57;;;;;;;22.98;12.38;;;10.30;82.50;;;;;;5070166;28;20357;-15
2022/10/13 06:05:26;;;;;;;18.70;11.68;;;10.40;82.60;;;;;;5070605;28;20060;-15
2022/10/13 06:07:54;;;;;;;19.90;12.65;;;10.50;82.60;;;;;;5070418;28;20029;-15
2022/10/13 06:10:22;;;;;;;23.75;13.32;;;10.60;82.70;;;;;;5070363;28;20029;-16
2022/10/13 06:12:48;;;;;;;23.95;13.30;;;10.70;82.60;;;;;;5069884;28;20082;-15
2022/10/13 06:15:13;;;;;;;24.23;14.70;;;10.90;82.40;;;;;;5069840;28;20029;-16
2022/10/13 06:17:39;;;;;;;26.30;15.85;;;11.00;82.30;;;;;;5068607;28;20021;-15
2022/10/13 06:20:07;;;;;;;22.92;13.68;;;11.20;82.20;;;;;;5069859;28;20100;-14
2022/10/13 06:22:34;;;;;;;28.02;16.27;;;11.30;82.20;;;;;;5070025;28;20033;-14
2022/10/13 06:25:01;;;;;;;26.17;15.52;;;11.50;82.20;;;;;;5069569;28;20036;-16
2022/10/13 06:27:27;;;;;;;30.08;17.60;;;11.60;82.20;;;;;;5070011;28;20029;-15
2022/10/13 06:29:53;;;;;;;20.77;14.13;;;11.80;82.20;;;;;;5069945;28;20112;-15
2022/10/13 06:32:19;;;;;;;22.20;14.25;;;12.00;82.10;;;;;;5070203;28;20108;-15
2022/10/13 06:34:44;;;;;;;25.77;15.98;;;12.20;82.00;;;;;;5069789;28;20124;-15
2022/10/13 06:37:10;;;;;;;18.98;11.98;;;12.40;81.90;;;;;;5069340;28;20024;-15
2022/10/13 06:39:36;;;;;;;20.13;13.02;;;12.60;81.80;;;;;;5069863;28;20104;-15
2022/10/13 06:42:03;;;;;;;23.73;13.45;;;12.90;81.70;;;;;;5069386;28;20032;-15
2022/10/13 06:44:31;;;;;;;23.45;14.73;;;13.10;81.50;;;;;;5069597;28;20021;-14
2022/10/13 06:46:57;;;;;;;20.60;14.15;;;13.40;81.30;;;;;;5069034;28;20060;-15
2022/10/13 06:49:24;;;;;;;17.48;11.43;;;13.60;80.60;;;;;;5069179;28;20032;-15
2022/10/13 06:51:50;;;;;;;19.50;12.40;;;13.90;80.10;;;;;;5069216;28;20400;-17
2022/10/13 06:54:16;;;;;;;20.27;13.95;;;14.00;80.00;;;;;;5069362;28;20353;-16
2022/10/13 06:56:42;;;;;;;21.27;12.15;;;14.30;79.80;;;;;;5065684;28;20516;-15
2022/10/13 06:59:08;;;;;;;17.63;11.32;;;14.40;79.40;;;;;;5055641;28;20558;-15
2022/10/13 07:01:34;;;;;;;16.88;10.20;;;14.60;79.10;;;;;;5056106;28;20035;-15
2022/10/13 07:04:00;;;;;;;14.57;10.18;;;14.90;78.50;;;;;;5056021;28;20385;-15
2022/10/13 07:06:26;;;;;;;16.42;10.75;;;15.20;78.50;;;;;;5055986;28;20032;-15
2022/10/13 07:08:52;;;;;;;16.58;11.25;;;15.50;78.10;;;;;;5055769;28;20061;-15
2022/10/13 07:11:18;;;;;;;15.73;10.63;;;15.90;77.70;;;;;;5055659;28;20082;-15
2022/10/13 07:13:44;;;;;;;21.90;12.93;;;16.20;76.90;;;;;;5056165;28;20025;-14
2022/10/13 07:16:10;;;;;;;18.45;12.05;;;16.50;76.30;;;;;;5055864;28;20069;-14
2022/10/13 07:18:36;;;;;;;24.13;13.40;;;16.70;74.70;;;;;;5055706;28;20021;-14
2022/10/13 07:21:03;;;;;;;21.15;12.98;;;16.80;74.00;;;;;;5055336;28;20025;-14
2022/10/13 07:23:29;;;;;;;20.35;12.98;;;16.90;73.80;;;;;;5055870;28;20031;-13
2022/10/13 07:25:56;;;;;;;20.70;13.50;;;17.00;73.40;;;;;;5055597;28;20028;-15
2022/10/13 07:28:23;;;;;;;22.23;13.38;;;17.10;73.10;;;;;;5055352;28;20029;-14
2022/10/13 07:30:49;;;;;;;18.50;12.30;;;17.10;73.10;;;;;;5055156;28;20021;-16
2022/10/13 07:33:15;;;;;;;19.35;13.82;;;17.20;72.90;;;;;;5055441;28;20623;-14
2022/10/13 07:35:41;;;;;;;17.55;11.75;;;17.30;72.70;;;;;;5055189;28;20472;-15
2022/10/13 07:38:08;;;;;;;15.15;11.82;;;17.40;72.60;;;;;;5055064;28;20028;-16
2022/10/13 07:40:34;;;;;;;16.67;10.32;;;17.50;72.50;;;;;;5055238;28;20103;-16
2022/10/13 07:43:01;;;;;;;15.07;9.77;;;17.60;72.10;;;;;;5055203;28;20051;-15
2022/10/13 07:45:27;;;;;;;18.42;11.20;;;17.80;71.80;;;;;;5054927;28;20056;-16
2022/10/13 07:47:54;;;;;;;16.17;11.85;;;17.90;71.60;;;;;;5055182;28;20057;-14
2022/10/13 07:50:21;;;;;;;22.42;12.60;;;18.10;71.20;;;;;;5054915;28;20473;-17
2022/10/13 07:52:47;;;;;;;16.73;10.77;;;18.20;70.70;;;;;;5054637;28;20029;-16
2022/10/13 07:55:13;;;;;;;21.23;11.80;;;18.30;70.20;;;;;;5055132;28;20024;-16
2022/10/13 07:57:39;;;;;;;17.55;10.90;;;18.40;69.70;;;;;;5055236;28;20025;-15
2022/10/13 08:00:05;;;;;;;18.00;11.23;;;18.50;69.40;;;;;;5054949;28;20096;-15
2022/10/13 08:02:32;;;;;;;20.42;11.23;;;18.50;69.30;;;;;;5054593;28;20025;-15
2022/10/13 08:04:57;;;;;;;13.95;8.90;;;18.70;69.20;;;;;;5054259;28;20021;-15
2022/10/13 08:07:23;;;;;;;17.08;11.27;;;18.80;69.00;;;;;;5053335;28;20029;-17
2022/10/13 08:09:49;;;;;;;20.95;12.15;;;18.90;68.60;;;;;;5053492;28;20028;-15
2022/10/13 08:12:15;;;;;;;19.38;12.25;;;19.20;68.00;;;;;;5055103;28;20033;-15
2022/10/13 08:14:41;;;;;;;18.73;13.70;;;19.30;67.50;;;;;;5055039;28;20025;-15
2022/10/13 08:17:07;;;;;;;17.45;11.52;;;19.50;67.10;;;;;;5054122;28;20055;-15
2022/10/13 08:19:33;;;;;;;14.10;10.15;;;19.70;66.80;;;;;;5054476;28;20025;-15
2022/10/13 08:21:59;;;;;;;17.20;11.50;;;19.90;65.90;;;;;;5054584;28;20036;-15
2022/10/13 08:24:26;;;;;;;15.70;9.93;;;20.20;65.50;;;;;;5054225;28;20514;-15
2022/10/13 08:26:52;;;;;;;18.33;11.00;;;20.40;64.60;;;;;;5053975;28;20021;-14
2022/10/13 08:29:18;;;;;;;15.27;9.63;;;20.60;63.50;;;;;;5054617;28;20028;-14
2022/10/13 08:31:44;;;;;;;13.85;8.80;;;20.70;62.80;;;;;;5054366;28;20380;-14
2022/10/13 08:34:10;;;;;;;12.02;7.82;;;20.90;61.90;;;;;;5054117;28;20505;-14
2022/10/13 08:36:37;;;;;;;10.95;7.32;;;21.20;61.70;;;;;;5054011;28;20032;-15
2022/10/13 08:39:03;;;;;;;12.85;8.00;;;21.40;60.40;;;;;;5053774;28;20117;-14
2022/10/13 08:41:35;;;;;;;10.93;7.72;;;21.90;60.00;;;;;;5053925;28;20029;-14
2022/10/13 08:44:15;;;;;;;12.68;8.35;;;22.30;58.50;;;;;;5054436;28;20031;-14
2022/10/13 08:46:55;;;;;;;10.30;7.00;;;22.70;57.70;;;;;;5054373;28;20051;-14
2022/10/13 08:49:21;;;;;;;12.10;7.78;;;23.10;56.80;;;;;;5054080;28;20033;-14
2022/10/13 08:51:47;;;;;;;12.85;7.70;;;23.40;55.90;;;;;;5054023;28;20098;-14
2022/10/13 08:54:17;;;;;;;11.40;7.90;;;23.50;54.30;;;;;;5053977;28;20428;-14
2022/10/13 08:56:48;;;;;;;13.98;8.15;;;23.70;53.10;;;;;;5053553;28;20052;-14
2022/10/13 08:59:17;;;;;;;12.00;7.15;;;23.90;52.10;;;;;;5053988;28;20021;-15
2022/10/13 09:01:48;;;;;;;11.55;7.03;;;24.10;52.40;;;;;;5053565;28;20033;-15
2022/10/13 09:04:40;;;;;;;11.50;7.03;;;24.40;52.70;;;;;;5053811;28;20025;-15
2022/10/13 09:07:14;;;;;;;11.40;7.68;;;24.70;52.30;;;;;;5053182;28;20029;-14
2022/10/13 09:13:04;;;;;;;9.25;6.60;;;25.20;49.60;;;;;;5053877;28;20139;-12
2022/10/13 09:15:43;;;;;;;13.95;7.68;;;25.10;50.20;;;;;;5205975;22;20471;-17
2022/10/13 09:18:12;;;;;;;9.80;6.97;;;25.00;49.50;;;;;;5053637;28;20021;-16
2022/10/13 09:20:38;;;;;;;10.85;7.18;;;25.20;50.10;;;;;;5052964;28;20033;-18
2022/10/13 09:23:13;;;;;;;11.68;7.43;;;25.40;48.80;;;;;;5052999;28;20131;-17
2022/10/13 09:25:42;;;;;;;12.27;7.47;;;25.60;47.50;;;;;;5053081;28;20480;-17
2022/10/13 09:28:22;;;;;;;10.63;6.72;;;25.80;47.10;;;;;;5053419;28;20025;-17
2022/10/13 09:30:59;;;;;;;14.27;8.55;;;25.90;47.50;;;;;;5052944;28;20036;-19
2022/10/13 09:33:25;;;;;;;12.60;7.95;;;26.10;47.40;;;;;;5053581;28;20053;-17
2022/10/13 09:36:05;;;;;;;14.45;8.52;;;26.20;47.30;;;;;;5052969;28;20041;-18
2022/10/13 09:38:32;;;;;;;12.30;7.68;;;26.20;45.40;;;;;;5053032;28;20037;-17
2022/10/13 09:41:20;;;;;;;10.65;7.47;;;26.10;47.20;;;;;;5052785;28;20132;-17
2022/10/13 09:43:45;;;;;;;10.98;7.35;;;26.20;46.70;;;;;;5035179;28;20032;-17
2022/10/13 09:46:25;;;;;;;11.23;7.00;;;26.30;46.80;;;;;;5052874;28;20033;-17
2022/10/13 09:48:58;;;;;;;10.35;6.68;;;26.50;46.30;;;;;;5052753;28;20074;-17
2022/10/13 09:51:30;;;;;;;11.30;7.32;;;26.90;46.20;;;;;;5053882;28;20029;-17
2022/10/13 09:53:56;;;;;;;11.32;7.35;;;27.00;45.00;;;;;;5052861;28;20037;-18
2022/10/13 09:56:46;;;;;;;12.13;7.65;;;27.10;45.30;;;;;;5053139;28;20060;-16
2022/10/13 09:59:26;;;;;;;15.98;7.15;;;27.20;44.00;;;;;;5052801;28;20036;-16
2022/10/13 10:01:56;;;;;;;10.77;6.97;;;27.40;43.30;;;;;;5053300;28;20463;-17
2022/10/13 10:04:36;;;;;;;12.73;8.45;;;27.40;43.60;;;;;;5052737;28;20400;-16
2022/10/13 10:07:17;;;;;;;12.55;7.50;;;27.70;41.50;;;;;;5052502;28;20043;-17
2022/10/13 10:10:05;;;;;;;15.32;9.40;;;28.00;40.80;;;;;;5052761;28;20563;-17
2022/10/13 10:12:36;;;;;;;9.95;7.07;;;28.10;40.90;;;;;;5052984;28;20096;-17
2022/10/13 10:15:16;;;;;;;12.02;7.30;;;28.00;41.80;;;;;;5051811;28;20045;-16
2022/10/13 10:17:59;;;;;;;10.35;7.05;;;28.20;41.50;;;;;;5052702;28;20063;-17
2022/10/13 10:20:48;;;;;;;12.35;8.07;;;28.40;42.00;;;;;;5052335;28;20448;-16
2022/10/13 10:23:36;;;;;;;10.60;7.65;;;28.80;39.30;;;;;;5052235;28;20025;-17
2022/10/13 10:26:14;;;;;;;12.00;7.65;;;29.00;39.80;;;;;;5051917;28;20045;-17
2022/10/13 10:29:00;;;;;;;12.82;7.43;;;29.30;39.20;;;;;;5052145;28;20075;-17
2022/10/13 10:31:52;;;;;;;12.95;8.32;;;29.60;38.70;;;;;;5052101;28;20056;-17
2022/10/13 10:34:46;;;;;;;12.15;7.60;;;29.90;38.20;;;;;;5056339;28;20028;-18
2022/10/13 10:37:29;;;;;;;12.40;8.23;;;30.20;38.20;;;;;;5056318;28;20523;-17
2022/10/13 10:40:01;;;;;;;;;;;30.40;37.80;;;;;;5056366;28;20104;-17
2022/10/13 10:42:43;;;;;;;10.27;6.63;;;30.60;38.10;;;;;;5055953;28;19936;-17
2022/10/13 10:45:23;;;;;;;9.60;6.68;;;30.80;37.90;;;;;;5055223;28;20029;-16
2022/10/13 10:48:01;;;;;;;14.52;9.05;;;31.10;37.10;;;;;;5055955;28;20021;-15
2022/10/13 10:50:29;;;;;;;11.52;7.32;;;31.20;36.10;;;;;;5055647;28;20036;-17
2022/10/13 10:52:55;;;;;;;11.77;7.30;;;30.70;36.90;;;;;;5055423;28;20033;-17
2022/10/13 10:55:38;;;;;;;10.50;6.57;;;30.50;37.70;;;;;;5055312;28;20044;-17
2022/10/13 10:58:41;;;;;;;11.23;6.82;;;30.30;38.00;;;;;;5055418;28;20021;-19
2022/10/13 11:01:10;;;;;;;10.93;7.60;;;30.10;35.80;;;;;;5026516;28;20032;-17
2022/10/13 11:04:11;;;;;;;12.85;7.95;;;30.00;38.40;;;;;;5055643;28;20029;-18
2022/10/13 11:06:37;;;;;;;11.52;7.05;;;30.20;36.90;;;;;;5055311;28;20135;-18
2022/10/13 11:09:05;;;;;;;15.40;8.48;;;30.20;38.60;;;;;;5117845;22;20508;-14
2022/10/13 11:11:35;;;;;;;11.35;7.20;;;29.70;36.70;;;;;;5075514;28;20042;-15
2022/10/13 11:14:05;;;;;;;11.65;8.07;;;29.50;38.60;;;;;;5057343;28;20021;-14
2022/10/13 11:16:57;;;;;;;14.75;9.27;;;29.40;38.20;;;;;;5075169;28;20418;-14
2022/10/13 11:19:38;;;;;;;11.55;7.15;;;29.30;36.60;;;;;;5075637;28;20027;-14
2022/10/13 11:22:04;;;;;;;10.98;7.53;;;29.30;38.30;;;;;;5075829;28;20349;-14
2022/10/13 11:24:37;;;;;;;11.18;7.22;;;29.50;38.50;;;;;;5075384;28;20064;-14
2022/10/13 11:27:06;;;;;;;11.85;7.38;;;30.00;38.10;;;;;;5074735;28;20044;-14
2022/10/13 11:29:53;;;;;;;10.32;7.25;;;30.50;37.00;;;;;;5134651;22;20053;-14
2022/10/13 11:32:25;;;;;;;9.60;6.72;;;30.70;35.70;;;;;;5015615;28;20026;-15
2022/10/13 11:34:58;;;;;;;10.85;6.55;;;30.80;36.10;;;;;;5015112;28;20108;-14
2022/10/13 11:37:41;;;;;;;13.68;9.18;;;31.00;35.40;;;;;;5015108;28;20029;-16
2022/10/13 11:40:07;;;;;;;11.55;8.48;;;31.20;32.90;;;;;;5015357;28;20026;-15
2022/10/13 11:42:58;;;;;;;9.15;6.38;;;31.10;34.60;;;;;;5015206;28;20030;-14
2022/10/13 11:45:47;;;;;;;14.30;8.07;;;30.80;35.40;;;;;;4994416;28;20050;-14
2022/10/13 11:48:31;;;;;;;8.73;6.10;;;30.70;34.70;;;;;;5014915;28;20477;-15
2022/10/13 11:51:03;;;;;;;10.40;7.60;;;30.50;35.90;;;;;;5014855;28;20025;-15
2022/10/13 11:53:52;;;;;;;9.52;6.97;;;30.70;34.10;;;;;;4997277;28;20486;-15
2022/10/13 11:56:46;;;;;;;9.30;6.53;;;31.00;34.10;;;;;;5009175;28;20030;-15
2022/10/13 11:59:33;;;;;;;11.45;7.10;;;31.40;34.80;;;;;;5012699;28;20113;-15
2022/10/13 12:02:15;;;;;;;9.25;6.70;;;31.90;32.30;;;;;;5014928;28;20027;-16
2022/10/13 12:04:43;;;;;;;12.23;7.95;;;32.40;33.70;;;;;;5014959;28;20026;-14
2022/10/13 12:07:13;;;;;;;10.73;6.65;;;32.60;33.20;;;;;;5014351;28;20091;-14
2022/10/13 12:09:53;;;;;;;10.13;6.20;;;32.40;33.30;;;;;;5014623;28;20028;-15
2022/10/13 12:12:22;;;;;;;11.45;7.10;;;32.40;34.10;;;;;;5014798;28;20045;-15
2022/10/13 12:14:51;;;;;;;10.85;5.88;;;32.50;34.00;;;;;;5014245;28;20053;-16
2022/10/13 12:17:31;;;;;;;9.93;6.82;;;32.90;33.70;;;;;;5014303;28;20484;-14
2022/10/13 12:20:02;;;;;;;8.70;6.47;;;33.30;33.40;;;;;;5014366;28;20033;-15
2022/10/13 12:22:28;;;;;;;13.43;7.85;;;33.60;32.80;;;;;;5014562;28;20061;-17
2022/10/13 12:25:04;;;;;;;15.80;7.30;;;33.60;31.60;;;;;;5014082;28;20474;-15
2022/10/13 12:27:32;;;;;;;14.35;7.80;;;32.80;31.70;;;;;;5014551;28;20486;-14
2022/10/13 12:30:00;;;;;;;12.05;7.53;;;31.80;33.10;;;;;;4996195;28;20066;-15
2022/10/13 12:32:33;;;;;;;11.25;6.97;;;31.20;33.90;;;;;;5014405;28;20041;-17
2022/10/13 12:35:19;;;;;;;9.90;6.78;;;31.00;34.30;;;;;;5013939;28;20033;-15
2022/10/13 12:37:46;;;;;;;11.82;6.70;;;31.40;33.40;;;;;;5014581;28;20034;-16
2022/10/13 12:40:17;;;;;;;12.23;7.97;;;31.90;34.30;;;;;;5014457;28;20083;-15
2022/10/13 12:42:44;;;;;;;11.45;7.45;;;32.00;33.00;;;;;;5013934;28;20037;-17
2022/10/13 12:45:20;;;;;;;10.10;6.47;;;31.70;33.30;;;;;;5013738;28;20112;-16
2022/10/13 12:47:48;;;;;;;8.18;6.25;;;31.10;34.00;;;;;;5014281;28;20018;-15
2022/10/13 12:50:22;;;;;;;13.73;8.57;;;31.00;34.70;;;;;;5014428;28;20513;-15
2022/10/13 12:52:51;;;;;;;11.40;6.70;;;31.40;34.20;;;;;;5013810;28;20516;-15
2022/10/13 12:55:19;;;;;;;10.55;6.93;;;31.70;33.90;;;;;;5014121;28;20052;-15
2022/10/13 12:57:48;;;;;;;10.77;7.00;;;32.00;32.50;;;;;;5013920;28;20026;-14
2022/10/13 13:00:27;;;;;;;13.45;7.65;;;32.50;31.40;;;;;;5013865;28;20026;-15
2022/10/13 13:03:02;;;;;;;10.85;6.95;;;32.90;31.10;;;;;;5014391;28;20022;-15
2022/10/13 13:05:48;;;;;;;8.82;6.28;;;32.80;32.00;;;;;;5013793;28;20120;-15